createdAt,value
2022-09-15T00:00:32.850Z,16.10
2022-09-15T00:02:59.752Z,15.97
2022-09-15T00:05:26.619Z,15.84
2022-09-15T00:07:53.456Z,15.86
2022-09-15T00:10:20.705Z,15.93
2022-09-15T00:12:47.392Z,15.83
2022-09-15T00:15:15.678Z,15.81
2022-09-15T00:17:47.759Z,15.72
2022-09-15T00:20:14.707Z,15.72
2022-09-15T00:22:41.380Z,15.79
2022-09-15T00:25:08.615Z,15.78
2022-09-15T00:27:35.337Z,15.84
2022-09-15T00:30:02.167Z,15.79
2022-09-15T00:32:30.124Z,15.71
2022-09-15T00:34:57.201Z,15.59
2022-09-15T00:37:24.272Z,15.64
2022-09-15T00:39:51.302Z,15.64
2022-09-15T00:42:20.379Z,15.64
2022-09-15T00:44:57.063Z,15.60
2022-09-15T00:47:28.247Z,15.57
2022-09-15T00:50:03.879Z,15.55
2022-09-15T00:52:49.445Z,15.59
2022-09-15T00:55:22.532Z,15.52
2022-09-15T00:58:08.336Z,15.44
2022-09-15T01:00:35.265Z,15.37
2022-09-15T01:03:03.289Z,15.35
2022-09-15T01:05:35.341Z,15.35
2022-09-15T01:08:04.964Z,15.39
2022-09-15T01:10:38.033Z,15.38
2022-09-15T01:13:07.641Z,15.45
2022-09-15T01:15:47.757Z,15.42
2022-09-15T01:18:47.176Z,15.39
2022-09-15T01:21:46.672Z,15.52
2022-09-15T01:24:31.621Z,15.51
2022-09-15T01:27:40.590Z,15.44
2022-09-15T01:30:17.450Z,15.46
2022-09-15T01:33:04.177Z,15.51
2022-09-15T01:35:42.790Z,15.48
2022-09-15T01:38:54.320Z,15.52
2022-09-15T01:41:33.405Z,15.50
2022-09-15T01:44:09.652Z,15.47
2022-09-15T01:46:42.969Z,15.54
2022-09-15T01:49:15.028Z,15.40
2022-09-15T01:51:43.852Z,15.41
2022-09-15T01:54:13.219Z,15.51
2022-09-15T01:56:42.253Z,15.54
2022-09-15T01:59:11.297Z,15.53
2022-09-15T02:01:52.315Z,15.62
2022-09-15T02:04:31.128Z,15.56
2022-09-15T02:07:08.338Z,15.57
2022-09-15T02:09:57.495Z,15.47
2022-09-15T02:12:56.386Z,15.44
2022-09-15T02:15:30.649Z,15.42
2022-09-15T02:17:59.285Z,15.35
2022-09-15T02:20:33.326Z,15.31
2022-09-15T02:23:08.565Z,15.30
2022-09-15T02:25:42.325Z,15.25
2022-09-15T02:28:11.900Z,15.20
2022-09-15T02:30:42.246Z,15.23
2022-09-15T02:33:19.851Z,15.20
2022-09-15T02:35:47.491Z,15.18
2022-09-15T02:38:15.269Z,15.12
2022-09-15T02:40:44.208Z,15.09
2022-09-15T02:43:13.940Z,15.16
2022-09-15T02:45:41.146Z,15.08
2022-09-15T02:48:11.800Z,15.01
2022-09-15T02:50:39.628Z,15.04
2022-09-15T02:53:06.365Z,15.09
2022-09-15T02:55:33.694Z,14.97
2022-09-15T02:58:00.620Z,14.95
2022-09-15T03:00:28.537Z,14.89
2022-09-15T03:02:56.310Z,15.01
2022-09-15T03:05:25.973Z,15.20
2022-09-15T03:07:53.916Z,15.11
2022-09-15T03:10:22.089Z,14.86
2022-09-15T03:12:51.520Z,14.76
2022-09-15T03:15:20.775Z,14.81
2022-09-15T03:17:48.640Z,15.03
2022-09-15T03:20:20.131Z,14.94
2022-09-15T03:22:47.864Z,14.92
2022-09-15T03:25:14.713Z,14.77
2022-09-15T03:27:42.649Z,14.83
2022-09-15T03:30:10.957Z,14.79
2022-09-15T03:32:38.157Z,14.77
2022-09-15T03:35:06.188Z,14.76
2022-09-15T03:37:34.919Z,14.70
2022-09-15T03:40:01.880Z,14.73
2022-09-15T03:42:29.298Z,14.70
2022-09-15T03:44:56.016Z,14.63
2022-09-15T03:47:22.872Z,14.51
2022-09-15T03:49:49.559Z,14.51
2022-09-15T03:52:16.581Z,14.71
2022-09-15T03:54:43.951Z,14.83
2022-09-15T03:57:11.606Z,14.69
2022-09-15T03:59:38.283Z,14.56
2022-09-15T04:02:05.136Z,14.54
2022-09-15T04:04:32.149Z,14.45
2022-09-15T04:06:58.917Z,14.38
2022-09-15T04:09:26.131Z,14.46
2022-09-15T04:11:52.852Z,14.41
2022-09-15T04:14:19.722Z,14.46
2022-09-15T04:16:46.671Z,14.45
2022-09-15T04:19:14.608Z,14.45
2022-09-15T04:21:41.298Z,14.44
2022-09-15T04:24:08.247Z,14.55
2022-09-15T04:26:36.924Z,14.53
2022-09-15T04:29:06.364Z,14.57
2022-09-15T04:31:34.245Z,14.51
2022-09-15T04:34:01.684Z,14.50
2022-09-15T04:36:29.248Z,14.52
2022-09-15T04:38:58.348Z,14.46
2022-09-15T04:41:26.475Z,14.46
2022-09-15T04:43:53.511Z,14.61
2022-09-15T04:46:20.923Z,14.67
2022-09-15T04:48:49.033Z,14.62
2022-09-15T04:51:18.757Z,14.59
2022-09-15T04:53:45.839Z,14.63
2022-09-15T04:56:15.533Z,14.58
2022-09-15T04:58:44.937Z,14.57
2022-09-15T05:01:14.506Z,14.71
2022-09-15T05:03:42.009Z,14.69
2022-09-15T05:06:12.247Z,14.68
2022-09-15T05:08:39.611Z,14.69
2022-09-15T05:11:09.300Z,14.71
2022-09-15T05:13:36.769Z,14.73
2022-09-15T05:16:15.335Z,14.76
2022-09-15T05:18:43.845Z,14.95
2022-09-15T05:21:12.258Z,14.93
2022-09-15T05:23:39.683Z,14.94
2022-09-15T05:26:11.263Z,14.96
2022-09-15T05:28:38.797Z,14.99
2022-09-15T05:31:18.357Z,14.99
2022-09-15T05:33:46.514Z,15.07
2022-09-15T05:36:15.303Z,15.14
2022-09-15T05:38:42.016Z,15.10
2022-09-15T05:41:11.741Z,15.11
2022-09-15T05:43:39.687Z,15.26
2022-09-15T05:46:08.178Z,15.30
2022-09-15T05:48:34.932Z,15.27
2022-09-15T05:51:02.866Z,15.33
2022-09-15T05:53:31.052Z,15.38
2022-09-15T05:55:59.692Z,15.40
2022-09-15T05:58:27.521Z,15.69
2022-09-15T06:00:54.963Z,15.78
2022-09-15T06:03:27.448Z,15.83
2022-09-15T06:06:02.235Z,15.85
2022-09-15T06:08:36.839Z,16.05
2022-09-15T06:11:06.141Z,16.10
2022-09-15T06:13:33.152Z,16.26
2022-09-15T06:16:08.945Z,16.22
2022-09-15T06:18:38.109Z,16.21
2022-09-15T06:21:07.381Z,16.32
2022-09-15T06:23:34.166Z,16.47
2022-09-15T06:26:13.552Z,16.30
2022-09-15T06:28:42.535Z,16.23
2022-09-15T06:31:11.787Z,16.03
2022-09-15T06:33:43.165Z,16.05
2022-09-15T06:36:11.925Z,16.04
2022-09-15T06:38:40.043Z,16.01
2022-09-15T06:41:08.123Z,16.01
2022-09-15T06:43:36.268Z,16.17
2022-09-15T06:46:11.787Z,16.26
2022-09-15T06:48:39.951Z,16.19
2022-09-15T06:51:09.355Z,16.15
2022-09-15T06:53:38.233Z,16.23
2022-09-15T06:56:08.063Z,16.32
2022-09-15T06:58:36.341Z,16.38
2022-09-15T07:01:10.084Z,16.15
2022-09-15T07:03:39.167Z,16.16
2022-09-15T07:06:07.665Z,16.22
2022-09-15T07:08:34.542Z,16.15
2022-09-15T07:11:01.607Z,16.22
2022-09-15T07:13:28.374Z,16.15
2022-09-15T07:15:58.133Z,16.15
2022-09-15T07:18:26.053Z,16.18
2022-09-15T07:20:57.978Z,16.22
2022-09-15T07:23:24.863Z,16.35
2022-09-15T07:25:51.641Z,16.39
2022-09-15T07:28:19.422Z,16.49
2022-09-15T07:30:51.250Z,16.82
2022-09-15T07:33:18.238Z,16.92
2022-09-15T07:35:45.155Z,17.03
2022-09-15T07:38:11.995Z,17.40
2022-09-15T07:40:38.788Z,17.50
2022-09-15T07:43:06.574Z,17.54
2022-09-15T07:45:33.765Z,17.71
2022-09-15T07:48:00.848Z,17.80
2022-09-15T07:50:27.526Z,17.78
2022-09-15T07:52:57.400Z,17.82
2022-09-15T07:55:24.350Z,18.27
2022-09-15T07:57:59.488Z,18.87
2022-09-15T08:00:27.274Z,18.77
2022-09-15T08:02:54.524Z,18.91
2022-09-15T08:05:21.909Z,18.82
2022-09-15T08:07:48.933Z,18.97
2022-09-15T08:10:15.857Z,19.09
2022-09-15T08:12:42.855Z,19.23
2022-09-15T08:15:09.747Z,18.76
2022-09-15T08:17:36.618Z,18.74
2022-09-15T08:20:03.587Z,18.47
2022-09-15T08:22:30.588Z,18.38
2022-09-15T08:24:57.314Z,18.64
2022-09-15T08:27:24.103Z,18.56
2022-09-15T08:29:51.920Z,18.58
2022-09-15T08:32:19.087Z,18.85
2022-09-15T08:34:46.128Z,18.93
2022-09-15T08:37:13.012Z,19.17
2022-09-15T08:39:40.067Z,18.98
2022-09-15T08:42:07.603Z,19.18
2022-09-15T08:44:53.157Z,18.96
2022-09-15T08:47:29.874Z,19.36
2022-09-15T08:50:01.630Z,19.95
2022-09-15T08:52:58.169Z,20.64
2022-09-15T08:55:41.815Z,20.71
2022-09-15T08:58:16.738Z,20.72
2022-09-15T09:00:45.662Z,20.59
2022-09-15T09:04:03.135Z,20.32
2022-09-15T09:06:42.315Z,20.28
2022-09-15T09:09:34.151Z,20.58
2022-09-15T09:12:19.319Z,21.00
2022-09-15T09:15:16.872Z,21.48
2022-09-15T09:18:17.593Z,20.99
2022-09-15T09:21:11.958Z,20.70
2022-09-15T09:23:54.666Z,21.04
2022-09-15T09:26:21.445Z,21.29
2022-09-15T09:28:59.458Z,21.38
2022-09-15T09:31:31.413Z,21.61
2022-09-15T09:34:03.020Z,21.63
2022-09-15T09:36:29.740Z,21.59
2022-09-15T09:39:02.158Z,21.14
2022-09-15T09:41:37.191Z,21.12
2022-09-15T09:44:10.299Z,21.06
2022-09-15T09:46:37.296Z,21.06
2022-09-15T09:49:37.312Z,20.60
2022-09-15T09:52:05.151Z,19.82
2022-09-15T09:54:33.939Z,19.77
2022-09-15T09:57:12.947Z,20.15
2022-09-15T09:59:45.114Z,20.39
2022-09-15T10:02:11.923Z,20.47
2022-09-15T10:04:40.198Z,20.56
2022-09-15T10:07:07.910Z,20.06
2022-09-15T10:09:37.264Z,20.26
2022-09-15T10:12:05.966Z,20.14
2022-09-15T10:14:41.707Z,19.80
2022-09-15T10:17:16.760Z,19.60
2022-09-15T10:19:55.252Z,19.72
2022-09-15T10:22:41.469Z,19.74
2022-09-15T10:25:44.206Z,19.85
2022-09-15T10:28:23.353Z,19.93
2022-09-15T10:31:11.929Z,19.38
2022-09-15T10:33:43.502Z,19.40
2022-09-15T10:36:24.148Z,19.77
2022-09-15T10:39:25.535Z,19.97
2022-09-15T10:42:11.006Z,20.05
2022-09-15T10:44:52.762Z,20.04
2022-09-15T10:47:44.660Z,19.78
2022-09-15T10:50:43.455Z,19.95
2022-09-15T10:53:47.339Z,20.12
2022-09-15T10:56:49.040Z,19.91
2022-09-15T10:59:38.296Z,19.92
2022-09-15T11:02:23.685Z,20.01
2022-09-15T11:05:20.380Z,19.50
2022-09-15T11:07:54.280Z,19.40
2022-09-15T11:10:41.959Z,19.39
2022-09-15T11:13:28.892Z,19.53
2022-09-15T11:15:58.638Z,19.63
2022-09-15T11:18:40.761Z,19.50
2022-09-15T11:21:23.013Z,19.31
2022-09-15T11:23:52.897Z,19.06
2022-09-15T11:26:44.528Z,19.17
2022-09-15T11:29:27.092Z,19.17
2022-09-15T11:32:07.732Z,19.06
2022-09-15T11:34:41.464Z,19.07
2022-09-15T11:37:43.587Z,19.34
2022-09-15T11:40:20.727Z,19.41
2022-09-15T11:43:01.202Z,19.40
2022-09-15T11:45:38.173Z,19.22
2022-09-15T11:48:39.724Z,19.30
2022-09-15T11:51:07.305Z,19.35
2022-09-15T11:53:42.641Z,19.33
2022-09-15T11:56:24.784Z,19.15
2022-09-15T11:59:00.218Z,18.99
2022-09-15T12:01:42.301Z,18.99
2022-09-15T12:04:17.370Z,19.05
2022-09-15T12:07:04.592Z,18.78
2022-09-15T12:09:31.569Z,18.78
2022-09-15T12:12:14.306Z,18.74
2022-09-15T12:14:46.736Z,18.68
2022-09-15T12:17:26.214Z,18.73
2022-09-15T12:20:04.480Z,19.12
2022-09-15T12:22:34.396Z,19.40
2022-09-15T12:25:16.589Z,19.61
2022-09-15T12:27:43.762Z,19.83
2022-09-15T12:30:41.409Z,20.06
2022-09-15T12:33:54.697Z,20.22
2022-09-15T12:36:37.134Z,19.87
2022-09-15T12:39:21.116Z,19.56
2022-09-15T12:41:57.036Z,19.57
2022-09-15T12:44:36.170Z,19.75
2022-09-15T12:47:07.747Z,19.84
2022-09-15T12:49:42.221Z,20.03
2022-09-15T12:52:11.194Z,20.03
2022-09-15T12:54:45.506Z,19.90
2022-09-15T12:57:28.478Z,19.66
2022-09-15T13:00:23.397Z,19.60
2022-09-15T13:02:52.137Z,19.68
2022-09-15T13:05:39.034Z,19.53
2022-09-15T13:08:15.748Z,19.38
2022-09-15T13:11:13.197Z,19.59
2022-09-15T13:13:46.402Z,19.69
2022-09-15T13:16:18.618Z,19.85
2022-09-15T13:18:47.274Z,19.74
2022-09-15T13:21:17.605Z,19.66
2022-09-15T13:23:51.916Z,19.62
2022-09-15T13:26:25.618Z,19.41
2022-09-15T13:28:56.236Z,19.47
2022-09-15T13:31:55.408Z,19.20
2022-09-15T13:35:05.089Z,19.26
2022-09-15T13:38:20.025Z,19.20
2022-09-15T13:41:18.552Z,19.17
2022-09-15T13:44:10.234Z,19.61
2022-09-15T13:47:01.639Z,19.56
2022-09-15T13:49:45.748Z,19.57
2022-09-15T13:52:18.476Z,19.52
2022-09-15T13:55:07.884Z,19.49
2022-09-15T14:00:29.778Z,19.53
2022-09-15T14:03:05.413Z,19.56
2022-09-15T14:05:37.448Z,19.60
2022-09-15T14:08:09.682Z,19.52
2022-09-15T14:10:42.024Z,19.62
2022-09-15T14:13:13.583Z,19.75
2022-09-15T14:15:40.637Z,19.46
2022-09-15T14:18:20.228Z,19.35
2022-09-15T14:20:58.187Z,19.31
2022-09-15T14:23:24.899Z,19.30
2022-09-15T14:25:53.454Z,19.14
2022-09-15T14:28:34.893Z,18.95
2022-09-15T14:31:02.863Z,19.10
2022-09-15T14:33:38.557Z,19.51
2022-09-15T14:36:23.139Z,19.43
2022-09-15T14:39:09.028Z,19.22
2022-09-15T14:41:39.266Z,19.35
2022-09-15T14:47:30.658Z,19.33
2022-09-15T14:50:14.911Z,19.58
2022-09-15T14:52:45.397Z,19.53
2022-09-15T14:55:24.920Z,19.29
2022-09-15T14:57:55.718Z,19.30
2022-09-15T15:00:27.081Z,19.17
2022-09-15T15:03:18.158Z,19.25
2022-09-15T15:06:02.860Z,19.39
2022-09-15T15:08:42.519Z,19.55
2022-09-15T15:11:11.175Z,19.54
2022-09-15T15:13:42.723Z,19.58
2022-09-15T15:16:19.024Z,19.69
2022-09-15T15:18:46.399Z,19.44
2022-09-15T15:21:44.622Z,19.07
2022-09-15T15:24:22.495Z,19.27
2022-09-15T15:26:50.798Z,19.29
2022-09-15T15:29:43.611Z,19.08
2022-09-15T15:32:14.109Z,19.14
2022-09-15T15:34:48.627Z,19.01
2022-09-15T15:37:27.878Z,19.19
2022-09-15T15:39:57.331Z,19.10
2022-09-15T15:42:26.216Z,18.84
2022-09-15T15:45:23.575Z,18.96
2022-09-15T15:47:51.045Z,18.93
2022-09-15T15:50:21.007Z,18.99
2022-09-15T15:52:51.849Z,18.85
2022-09-15T15:55:21.591Z,18.76
2022-09-15T15:57:54.339Z,18.81
2022-09-15T16:00:44.220Z,18.88
2022-09-15T16:03:11.648Z,18.88
2022-09-15T16:05:40.899Z,18.84
2022-09-15T16:08:15.334Z,18.96
2022-09-15T16:10:46.430Z,18.92
2022-09-15T16:13:16.380Z,18.98
2022-09-15T16:15:44.255Z,18.98
2022-09-15T16:18:12.328Z,19.03
2022-09-15T16:20:40.319Z,18.90
2022-09-15T16:23:07.691Z,18.80
2022-09-15T16:25:40.717Z,18.68
2022-09-15T16:28:08.214Z,18.63
2022-09-15T16:30:35.310Z,18.65
2022-09-15T16:33:02.290Z,18.52
2022-09-15T16:35:43.080Z,18.50
2022-09-15T16:38:09.972Z,18.47
2022-09-15T16:40:39.771Z,18.47
2022-09-15T16:43:12.522Z,18.46
2022-09-15T16:45:40.941Z,18.50
2022-09-15T16:48:09.453Z,18.48
2022-09-15T16:50:39.798Z,18.44
2022-09-15T16:53:20.781Z,18.41
2022-09-15T16:55:51.397Z,18.42
2022-09-15T16:58:19.531Z,18.37
2022-09-15T17:00:48.499Z,18.21
2022-09-15T17:03:24.140Z,18.29
2022-09-15T17:05:52.947Z,18.31
2022-09-15T17:08:22.944Z,18.39
2022-09-15T17:10:50.417Z,18.43
2022-09-15T17:13:23.966Z,18.43
2022-09-15T17:15:56.335Z,18.44
2022-09-15T17:18:23.617Z,18.58
2022-09-15T17:20:50.937Z,18.51
2022-09-15T17:23:28.073Z,18.45
2022-09-15T17:25:58.495Z,18.46
2022-09-15T17:28:27.610Z,18.46
2022-09-15T17:31:02.303Z,18.54
2022-09-15T17:33:31.276Z,18.51
2022-09-15T17:35:58.943Z,18.58
2022-09-15T17:38:25.912Z,18.65
2022-09-15T17:40:55.363Z,18.61
2022-09-15T17:43:27.831Z,18.70
2022-09-15T17:45:55.557Z,18.61
2022-09-15T17:48:23.203Z,18.56
2022-09-15T17:50:50.656Z,18.71
2022-09-15T17:53:23.665Z,18.47
2022-09-15T17:55:50.949Z,18.28
2022-09-15T17:58:18.509Z,18.30
2022-09-15T18:00:46.164Z,18.31
2022-09-15T18:03:28.025Z,18.07
2022-09-15T18:05:59.633Z,18.05
2022-09-15T18:08:27.617Z,17.89
2022-09-15T18:10:54.865Z,17.91
2022-09-15T18:13:24.891Z,18.02
2022-09-15T18:15:52.075Z,18.07
2022-09-15T18:18:22.975Z,17.89
2022-09-15T18:20:51.700Z,17.87
2022-09-15T18:23:21.811Z,17.72
2022-09-15T18:25:49.914Z,17.60
2022-09-15T18:28:18.387Z,17.61
2022-09-15T18:30:48.071Z,17.61
2022-09-15T18:33:22.484Z,17.56
2022-09-15T18:35:51.878Z,17.63
2022-09-15T18:38:19.224Z,17.59
2022-09-15T18:40:55.430Z,17.50
2022-09-15T18:43:25.331Z,17.64
2022-09-15T18:45:55.230Z,17.75
2022-09-15T18:48:22.018Z,17.77
2022-09-15T18:50:49.036Z,17.71
2022-09-15T18:53:15.789Z,17.73
2022-09-15T18:55:42.832Z,17.65
2022-09-15T18:58:11.055Z,17.65
2022-09-15T19:00:37.872Z,17.71
2022-09-15T19:03:09.440Z,17.61
2022-09-15T19:05:36.642Z,17.57
2022-09-15T19:08:04.136Z,17.67
2022-09-15T19:10:31.456Z,17.86
2022-09-15T19:12:58.357Z,17.65
2022-09-15T19:15:25.551Z,16.86
2022-09-15T19:17:52.453Z,16.54
2022-09-15T19:20:19.839Z,16.34
2022-09-15T19:22:47.631Z,16.22
2022-09-15T19:25:15.009Z,16.18
2022-09-15T19:27:41.893Z,16.18
2022-09-15T19:30:10.370Z,16.24
2022-09-15T19:32:38.462Z,16.33
2022-09-15T19:35:06.327Z,16.46
2022-09-15T19:37:37.450Z,16.49
2022-09-15T19:40:08.804Z,16.63
2022-09-15T19:42:36.568Z,16.62
2022-09-15T19:45:04.105Z,16.56
2022-09-15T19:47:31.124Z,16.55
2022-09-15T19:49:58.147Z,16.72
2022-09-15T19:52:25.116Z,16.66
2022-09-15T19:54:51.779Z,16.67
2022-09-15T19:57:18.952Z,16.50
2022-09-15T19:59:45.703Z,16.40
2022-09-15T20:02:13.435Z,16.63
2022-09-15T20:04:40.506Z,16.63
2022-09-15T20:07:07.489Z,16.52
2022-09-15T20:09:34.635Z,16.54
2022-09-15T20:12:03.493Z,16.44
2022-09-15T20:14:31.169Z,16.35
2022-09-15T20:17:00.986Z,16.23
2022-09-15T20:19:29.457Z,16.24
2022-09-15T20:21:56.202Z,16.24
2022-09-15T20:24:24.133Z,16.15
2022-09-15T20:26:51.450Z,16.07
2022-09-15T20:29:19.118Z,16.20
2022-09-15T20:31:46.342Z,16.12
2022-09-15T20:34:13.656Z,16.17
2022-09-15T20:36:40.918Z,16.22
2022-09-15T20:39:13.101Z,16.12
2022-09-15T20:41:42.412Z,16.12
2022-09-15T20:44:09.587Z,16.20
2022-09-15T20:46:36.546Z,16.27
2022-09-15T20:49:03.669Z,16.30
2022-09-15T20:51:31.967Z,16.17
2022-09-15T20:54:00.665Z,16.04
2022-09-15T20:56:30.022Z,16.00
2022-09-15T20:58:58.627Z,16.04
2022-09-15T21:01:28.563Z,16.22
2022-09-15T21:03:55.755Z,16.25
2022-09-15T21:06:25.221Z,16.06
2022-09-15T21:08:53.392Z,16.19
2022-09-15T21:11:21.475Z,16.16
2022-09-15T21:13:49.506Z,16.04
2022-09-15T21:16:18.570Z,16.08
2022-09-15T21:18:45.939Z,16.26
2022-09-15T21:21:15.610Z,16.22
2022-09-15T21:23:47.807Z,16.21
2022-09-15T21:26:14.406Z,16.20
2022-09-15T21:28:43.535Z,16.05
2022-09-15T21:31:12.739Z,16.04
2022-09-15T21:33:39.976Z,16.06
2022-09-15T21:36:18.113Z,16.05
2022-09-15T21:38:45.759Z,15.97
2022-09-15T21:41:15.224Z,15.65
2022-09-15T21:43:47.867Z,15.65
2022-09-15T21:46:17.120Z,15.56
2022-09-15T21:48:44.468Z,15.62
2022-09-15T21:51:15.357Z,15.60
2022-09-15T21:53:43.118Z,15.61
2022-09-15T21:56:12.049Z,15.54
2022-09-15T21:58:42.903Z,15.52
2022-09-15T22:01:24.644Z,15.60
2022-09-15T22:03:57.068Z,15.65
2022-09-15T22:06:33.450Z,15.80
2022-09-15T22:09:01.889Z,15.68
2022-09-15T22:11:29.557Z,15.56
2022-09-15T22:13:56.870Z,15.33
2022-09-15T22:16:25.022Z,15.32
2022-09-15T22:18:52.368Z,15.34
2022-09-15T22:21:23.755Z,15.38
2022-09-15T22:23:51.910Z,15.32
2022-09-15T22:26:31.758Z,15.23
2022-09-15T22:28:59.782Z,15.34
2022-09-15T22:31:28.137Z,15.37
2022-09-15T22:33:55.753Z,15.36
2022-09-15T22:36:29.920Z,15.41
2022-09-15T22:39:05.656Z,15.48
2022-09-15T22:41:35.761Z,15.41
2022-09-15T22:44:03.805Z,15.29
2022-09-15T22:46:30.527Z,15.40
2022-09-15T22:48:57.729Z,15.57
2022-09-15T22:51:24.671Z,15.56
2022-09-15T22:53:56.837Z,15.53
2022-09-15T22:56:25.226Z,15.46
2022-09-15T22:58:51.967Z,15.46
2022-09-15T23:01:21.150Z,15.49
2022-09-15T23:03:56.685Z,15.43
2022-09-15T23:06:27.120Z,15.44
2022-09-15T23:08:56.503Z,15.30
2022-09-15T23:11:24.971Z,15.41
2022-09-15T23:13:55.514Z,15.29
2022-09-15T23:16:24.523Z,15.20
2022-09-15T23:18:52.443Z,15.32
2022-09-15T23:21:22.956Z,15.31
2022-09-15T23:23:50.569Z,15.17
2022-09-15T23:26:19.800Z,15.02
2022-09-15T23:28:50.295Z,14.90
2022-09-15T23:31:17.981Z,14.84
2022-09-15T23:33:44.924Z,14.84
2022-09-15T23:36:17.500Z,14.82
2022-09-15T23:38:45.591Z,14.91
2022-09-15T23:41:14.277Z,15.05
2022-09-15T23:43:41.489Z,14.98
2022-09-15T23:46:11.021Z,15.01
2022-09-15T23:48:38.356Z,14.91
2022-09-15T23:51:05.606Z,14.92
2022-09-15T23:53:32.396Z,14.85
2022-09-15T23:56:00.557Z,14.78
2022-09-15T23:58:27.725Z,14.83
